»·PEaware :: SOO360 KDEN-KEUG

SOO360 :: KDEN-KEUG

FLIGHT INFORMATION

Flight Status: Arrived
Operator: Unknown
More flights by this operator :: More flights under this callsign
Pilot: Brandon G. (13)
Aircraft: BOEING 727-200
(B722)
More flights by this aircraft type
Origin: KDEN Denver Intl
United States
Destination: KEUG Mahlon Sweet
United States
More flights between these airports :: More routes between these airports
Route: FOOOT4 RLG EKR KU66Q BOI DSD
File this flight plan on PilotEdge
Remarks:
Altitude:
(Current/Filed)
34,000ft
Speed:
(Current/Filed)
385kts
Departed: 08-Oct-18 12:34 PM
Arrived: 08-Oct-18 02:41 PM
Distance/Time
Traveled:
864nm/2:06
Distance/Time
To Go:
Arrived

Flight Plot

Page will automatically refresh every two minutes.

Flight plan parsing failed; only flown route is shown


Map Options




Map Legend


Flown Route
Filed Route
Departure Airport
Arrival Airport
Navaid (VOR, NDB)
Fix

Horizontal Profiles

Position Reports

Time Latitude Longitude Heading Altitude Ground
Speed
08-Oct-18 12:17 39.830931 -104.679193 327 5446ft 0kts
08-Oct-18 12:18 39.830931 -104.679193 327 5446ft 0kts
08-Oct-18 12:19 39.830931 -104.679193 327 5446ft 0kts
08-Oct-18 12:20 39.830931 -104.679193 327 5446ft 0kts
08-Oct-18 12:21 39.830931 -104.679193 327 5446ft 0kts
08-Oct-18 12:22 39.830931 -104.679193 327 5446ft 0kts
08-Oct-18 12:23 39.830931 -104.679193 327 5446ft 0kts
08-Oct-18 12:24 39.830931 -104.679193 327 5446ft 0kts
08-Oct-18 12:25 39.830931 -104.679193 327 5446ft 0kts
08-Oct-18 12:26 39.830931 -104.679193 327 5446ft 0kts
08-Oct-18 12:27 39.830931 -104.679193 327 5446ft 0kts
08-Oct-18 12:28 39.830761 -104.679051 327 5446ft 2kts
08-Oct-18 12:29 39.830223 -104.679098 50 5446ft 2kts
08-Oct-18 12:30 39.830136 -104.679489 92 5446ft 0kts
08-Oct-18 12:31 39.830136 -104.679489 92 5446ft 0kts
08-Oct-18 12:32 39.828846 -104.677286 161 5446ft 11kts
08-Oct-18 12:33 39.828507 -104.672979 89 5446ft 15kts
08-Oct-18 12:34 39.828440 -104.666429 90 5446ft 20kts
08-Oct-18 12:35 39.829259 -104.660523 0 5446ft 15kts
08-Oct-18 12:36 39.864009 -104.660299 4 5969ft 203kts
08-Oct-18 12:37 39.903187 -104.727383 284 8748ft 278kts
08-Oct-18 12:38 39.926652 -104.833215 285 10452ft 370kts
08-Oct-18 12:39 39.944799 -104.963581 269 13978ft 378kts
08-Oct-18 12:40 39.959329 -105.099467 273 16967ft 393kts
08-Oct-18 12:41 39.975638 -105.241608 273 19549ft 409kts
08-Oct-18 12:42 39.983024 -105.388873 261 21720ft 414kts
08-Oct-18 12:43 39.978682 -105.540140 261 23601ft 428kts
08-Oct-18 12:44 39.974355 -105.692509 260 25271ft 439kts
08-Oct-18 12:45 39.971572 -105.851079 264 26761ft 451kts
08-Oct-18 12:46 39.979866 -106.014329 265 28064ft 461kts
08-Oct-18 12:47 39.988824 -106.179300 265 29621ft 460kts
08-Oct-18 12:48 39.997558 -106.343921 264 31239ft 454kts
08-Oct-18 12:49 40.005817 -106.505599 263 32712ft 448kts
08-Oct-18 12:50 40.013485 -106.662454 262 33934ft 445kts
08-Oct-18 12:51 40.021213 -106.827181 263 33952ft 468kts
08-Oct-18 12:52 40.028970 -106.996957 266 33947ft 477kts
08-Oct-18 12:53 40.036767 -107.169644 267 33962ft 484kts
08-Oct-18 12:54 40.044349 -107.345196 267 33973ft 490kts
08-Oct-18 12:55 40.051645 -107.521331 267 33954ft 492kts
08-Oct-18 12:56 40.058622 -107.694967 267 33956ft 493kts
08-Oct-18 12:57 40.065356 -107.869296 267 33959ft 494kts
08-Oct-18 12:58 40.117534 -108.030825 295 33941ft 514kts
08-Oct-18 12:59 40.188464 -108.186375 296 33940ft 515kts
08-Oct-18 13:00 40.261822 -108.346063 296 33943ft 515kts
08-Oct-18 13:01 40.334675 -108.505385 296 33942ft 516kts
08-Oct-18 13:02 40.405992 -108.662148 296 33964ft 516kts
08-Oct-18 13:03 40.478616 -108.822622 295 33972ft 516kts
08-Oct-18 13:04 40.550839 -108.983106 296 33967ft 517kts
08-Oct-18 13:05 40.623533 -109.145813 302 33983ft 517kts
08-Oct-18 13:06 40.694830 -109.305356 301 33970ft 510kts
08-Oct-18 13:07 40.765441 -109.464687 301 33971ft 505kts
08-Oct-18 13:08 40.834918 -109.622278 301 33970ft 502kts
08-Oct-18 13:09 40.903103 -109.777711 301 33988ft 499kts
08-Oct-18 13:10 40.971335 -109.934068 301 34057ft 496kts
08-Oct-18 13:11 41.040438 -110.088602 302 34060ft 496kts
08-Oct-18 13:12 41.107423 -110.236042 301 34064ft 496kts
08-Oct-18 13:13 41.177585 -110.391256 301 34065ft 497kts
08-Oct-18 13:14 41.247037 -110.545656 301 34064ft 498kts
08-Oct-18 13:15 41.315379 -110.698373 301 34058ft 498kts
08-Oct-18 13:16 41.383641 -110.851693 301 34019ft 496kts
08-Oct-18 13:17 41.452804 -111.007958 302 34020ft 492kts
08-Oct-18 13:18 41.521089 -111.162874 303 34016ft 486kts
08-Oct-18 13:19 41.587983 -111.315326 303 34016ft 481kts
08-Oct-18 13:20 41.654724 -111.468306 303 33990ft 478kts
08-Oct-18 13:21 41.720820 -111.620606 303 33969ft 476kts
08-Oct-18 13:22 41.783620 -111.773040 296 33971ft 476kts
08-Oct-18 13:23 41.834825 -111.935462 296 33966ft 476kts
08-Oct-18 13:24 41.885207 -112.098232 296 33963ft 475kts
08-Oct-18 13:25 41.935106 -112.260502 296 33956ft 475kts
08-Oct-18 13:26 41.984934 -112.423576 296 33953ft 475kts
08-Oct-18 13:27 42.034378 -112.586390 296 33949ft 475kts
08-Oct-18 13:28 42.083070 -112.747705 295 33991ft 474kts
08-Oct-18 13:29 42.130346 -112.905509 296 34025ft 474kts
08-Oct-18 13:30 42.179319 -113.069812 298 34023ft 471kts
08-Oct-18 13:31 42.227769 -113.233148 298 34022ft 469kts
08-Oct-18 13:32 42.275566 -113.395510 298 34020ft 467kts
08-Oct-18 13:33 42.315197 -113.530884 298 34020ft 466kts
08-Oct-18 13:34 42.369503 -113.717621 297 34020ft 465kts
08-Oct-18 13:35 42.416259 -113.879490 297 34019ft 464kts
08-Oct-18 13:36 42.455295 -114.015411 297 34018ft 464kts
08-Oct-18 13:37 42.509385 -114.204974 297 34023ft 463kts
08-Oct-18 13:38 42.547615 -114.339818 297 34025ft 463kts
08-Oct-18 13:39 42.601042 -114.529480 297 34024ft 463kts
08-Oct-18 13:40 42.638348 -114.662799 296 34023ft 462kts
08-Oct-18 13:41 42.691135 -114.852624 297 34024ft 462kts
08-Oct-18 13:42 42.728651 -114.988476 297 34024ft 462kts
08-Oct-18 13:43 42.773359 -115.151412 297 34021ft 461kts
08-Oct-18 13:44 42.817655 -115.313714 298 34012ft 457kts
08-Oct-18 13:45 42.861519 -115.475571 298 34008ft 455kts
08-Oct-18 13:46 42.904886 -115.636635 298 34007ft 453kts
08-Oct-18 13:47 42.947320 -115.795305 297 34010ft 451kts
08-Oct-18 13:48 42.989890 -115.955570 297 34008ft 450kts
08-Oct-18 13:49 43.031943 -116.114911 297 34007ft 448kts
08-Oct-18 13:50 43.073674 -116.274108 297 34006ft 447kts
08-Oct-18 13:51 43.114346 -116.430271 297 34029ft 446kts
08-Oct-18 13:52 43.155908 -116.590910 297 34031ft 448kts
08-Oct-18 13:53 43.196635 -116.749419 296 34040ft 449kts
08-Oct-18 13:54 43.237769 -116.910593 296 34052ft 450kts
08-Oct-18 13:55 43.278630 -117.071776 296 34051ft 450kts
08-Oct-18 13:56 43.319349 -117.233535 296 34049ft 448kts
08-Oct-18 13:57 43.359681 -117.394861 296 34046ft 447kts
08-Oct-18 13:58 43.399683 -117.555987 296 34049ft 446kts
08-Oct-18 13:59 43.439009 -117.715500 296 34055ft 445kts
08-Oct-18 14:00 43.478437 -117.876542 296 34057ft 445kts
08-Oct-18 14:01 43.516925 -118.034822 295 34066ft 445kts
08-Oct-18 14:02 43.555443 -118.194391 295 34070ft 444kts
08-Oct-18 14:03 43.593630 -118.353676 296 34069ft 444kts
08-Oct-18 14:04 43.631885 -118.514396 296 34067ft 444kts
08-Oct-18 14:05 43.668605 -118.669771 295 34068ft 443kts
08-Oct-18 14:06 43.706289 -118.830296 295 34070ft 444kts
08-Oct-18 14:07 43.743728 -118.990905 294 34068ft 443kts
08-Oct-18 14:08 43.780948 -119.151887 294 34066ft 443kts
08-Oct-18 14:09 43.817630 -119.311672 294 34064ft 443kts
08-Oct-18 14:10 43.854042 -119.471408 294 34063ft 442kts
08-Oct-18 14:11 43.890306 -119.631661 294 34061ft 442kts
08-Oct-18 14:12 43.925370 -119.787747 294 34066ft 442kts
08-Oct-18 14:13 43.961411 -119.949360 294 34064ft 442kts
08-Oct-18 14:14 43.997273 -120.111427 294 34052ft 442kts
08-Oct-18 14:15 44.032875 -120.273548 294 34033ft 442kts
08-Oct-18 14:16 44.068039 -120.434945 294 34022ft 442kts
08-Oct-18 14:17 44.102264 -120.593137 294 34026ft 442kts
08-Oct-18 14:18 44.135151 -120.746555 294 34052ft 422kts
08-Oct-18 14:19 44.167335 -120.897252 293 32415ft 411kts
08-Oct-18 14:20 44.199880 -121.050809 292 29641ft 425kts
08-Oct-18 14:21 44.233377 -121.210328 291 26612ft 441kts
08-Oct-18 14:22 44.246385 -121.378068 273 25117ft 427kts
08-Oct-18 14:23 44.238484 -121.533372 272 24559ft 395kts
08-Oct-18 14:24 44.229376 -121.681325 271 23082ft 390kts
08-Oct-18 14:25 44.219921 -121.828890 270 21721ft 383kts
08-Oct-18 14:26 44.210390 -121.974444 270 20309ft 376kts
08-Oct-18 14:27 44.200893 -122.116775 270 18720ft 369kts
08-Oct-18 14:28 44.191416 -122.256123 269 17007ft 360kts
08-Oct-18 14:29 44.206457 -122.385822 294 15216ft 339kts
08-Oct-18 14:30 44.240168 -122.506185 295 13531ft 332kts
08-Oct-18 14:31 44.273814 -122.623865 295 11912ft 326kts
08-Oct-18 14:32 44.307530 -122.735213 294 10007ft 311kts
08-Oct-18 14:33 44.340255 -122.841993 294 10071ft 288kts
08-Oct-18 14:34 44.368311 -122.944244 294 8885ft 285kts
08-Oct-18 14:35 44.396863 -123.045752 294 7065ft 281kts
08-Oct-18 14:36 44.420483 -123.145632 262 5057ft 276kts
08-Oct-18 14:37 44.365852 -123.208016 203 4855ft 249kts
08-Oct-18 14:38 44.300877 -123.221487 178 3670ft 240kts
08-Oct-18 14:39 44.236084 -123.220688 178 2408ft 212kts
08-Oct-18 14:40 44.187308 -123.219951 178 1401ft 154kts
08-Oct-18 14:41 44.147684 -123.219481 178 639ft 142kts
08-Oct-18 14:42 44.117915 -123.218881 179 373ft 42kts
08-Oct-18 14:43 44.112243 -123.216873 179 376ft 12kts
08-Oct-18 14:44 44.110566 -123.215435 359 376ft 11kts
08-Oct-18 14:45 44.111030 -123.214971 88 376ft 0kts
08-Oct-18 14:46 44.111030 -123.214971 88 376ft 0kts
08-Oct-18 14:47 44.111030 -123.214971 88 376ft 0kts
08-Oct-18 14:48 44.111030 -123.214971 88 376ft 0kts
08-Oct-18 14:49 44.111030 -123.214971 88 376ft 0kts
08-Oct-18 14:50 44.111030 -123.214971 88 376ft 0kts

Navigation Log

Ident Type
Flight plan parsing failed, navigation log unavailable